sensor_id;sensor_type;location;lat;lon;timestamp;P1;durP1;ratioP1;P2;durP2;ratioP2
34489;SDS011;20730;49.372;7.324;2023-11-22T00:02:16;10.23;;;7.68;;
34489;SDS011;20730;49.372;7.324;2023-11-22T00:04:44;13.32;;;8.70;;
34489;SDS011;20730;49.372;7.324;2023-11-22T00:07:10;12.93;;;8.75;;
34489;SDS011;20730;49.372;7.324;2023-11-22T00:09:37;11.73;;;7.65;;
34489;SDS011;20730;49.372;7.324;2023-11-22T00:12:04;10.45;;;7.30;;
34489;SDS011;20730;49.372;7.324;2023-11-22T00:14:31;12.95;;;7.50;;
34489;SDS011;20730;49.372;7.324;2023-11-22T00:16:58;13.55;;;8.98;;
34489;SDS011;20730;49.372;7.324;2023-11-22T00:19:28;11.40;;;8.15;;
34489;SDS011;20730;49.372;7.324;2023-11-22T00:21:54;11.50;;;8.27;;
34489;SDS011;20730;49.372;7.324;2023-11-22T00:24:22;13.52;;;10.30;;
34489;SDS011;20730;49.372;7.324;2023-11-22T00:26:48;13.77;;;9.90;;
34489;SDS011;20730;49.372;7.324;2023-11-22T00:29:15;14.43;;;9.57;;
34489;SDS011;20730;49.372;7.324;2023-11-22T00:31:42;14.25;;;9.10;;
34489;SDS011;20730;49.372;7.324;2023-11-22T00:34:11;11.93;;;8.27;;
34489;SDS011;20730;49.372;7.324;2023-11-22T00:36:37;12.35;;;7.90;;
34489;SDS011;20730;49.372;7.324;2023-11-22T00:39:04;11.88;;;7.88;;
34489;SDS011;20730;49.372;7.324;2023-11-22T00:41:31;9.95;;;7.57;;
34489;SDS011;20730;49.372;7.324;2023-11-22T00:43:58;12.68;;;8.90;;
34489;SDS011;20730;49.372;7.324;2023-11-22T00:46:25;12.15;;;8.68;;
34489;SDS011;20730;49.372;7.324;2023-11-22T00:48:51;10.77;;;7.22;;
34489;SDS011;20730;49.372;7.324;2023-11-22T00:51:18;9.90;;;6.28;;
34489;SDS011;20730;49.372;7.324;2023-11-22T00:53:46;8.57;;;6.78;;
34489;SDS011;20730;49.372;7.324;2023-11-22T00:56:13;9.57;;;6.88;;
34489;SDS011;20730;49.372;7.324;2023-11-22T00:58:40;8.82;;;6.63;;
34489;SDS011;20730;49.372;7.324;2023-11-22T01:01:07;11.32;;;6.20;;
34489;SDS011;20730;49.372;7.324;2023-11-22T01:03:34;8.32;;;6.00;;
34489;SDS011;20730;49.372;7.324;2023-11-22T01:06:02;8.13;;;5.88;;
34489;SDS011;20730;49.372;7.324;2023-11-22T01:08:29;9.70;;;6.47;;
34489;SDS011;20730;49.372;7.324;2023-11-22T01:10:56;10.95;;;6.60;;
34489;SDS011;20730;49.372;7.324;2023-11-22T01:13:24;9.02;;;6.50;;
34489;SDS011;20730;49.372;7.324;2023-11-22T01:15:51;9.75;;;6.88;;
34489;SDS011;20730;49.372;7.324;2023-11-22T01:18:18;9.82;;;6.78;;
34489;SDS011;20730;49.372;7.324;2023-11-22T01:20:45;9.13;;;6.00;;
34489;SDS011;20730;49.372;7.324;2023-11-22T01:23:12;10.90;;;7.18;;
34489;SDS011;20730;49.372;7.324;2023-11-22T01:25:39;9.50;;;6.65;;
34489;SDS011;20730;49.372;7.324;2023-11-22T01:28:06;9.07;;;6.15;;
34489;SDS011;20730;49.372;7.324;2023-11-22T01:30:37;12.60;;;6.35;;
34489;SDS011;20730;49.372;7.324;2023-11-22T01:33:05;11.50;;;5.65;;
34489;SDS011;20730;49.372;7.324;2023-11-22T01:35:31;9.18;;;5.88;;
34489;SDS011;20730;49.372;7.324;2023-11-22T01:38:00;8.43;;;5.72;;
34489;SDS011;20730;49.372;7.324;2023-11-22T01:40:28;8.18;;;5.35;;
34489;SDS011;20730;49.372;7.324;2023-11-22T01:42:55;5.70;;;4.50;;
34489;SDS011;20730;49.372;7.324;2023-11-22T01:45:22;7.90;;;5.15;;
34489;SDS011;20730;49.372;7.324;2023-11-22T01:47:48;7.53;;;4.40;;
34489;SDS011;20730;49.372;7.324;2023-11-22T01:50:15;7.30;;;4.50;;
34489;SDS011;20730;49.372;7.324;2023-11-22T01:52:42;5.80;;;4.35;;
34489;SDS011;20730;49.372;7.324;2023-11-22T01:55:09;8.98;;;4.60;;
34489;SDS011;20730;49.372;7.324;2023-11-22T01:57:36;6.82;;;4.45;;
34489;SDS011;20730;49.372;7.324;2023-11-22T02:00:04;5.45;;;4.15;;
34489;SDS011;20730;49.372;7.324;2023-11-22T02:02:40;6.38;;;4.15;;
34489;SDS011;20730;49.372;7.324;2023-11-22T02:05:09;6.43;;;4.00;;
34489;SDS011;20730;49.372;7.324;2023-11-22T02:07:36;7.30;;;4.00;;
34489;SDS011;20730;49.372;7.324;2023-11-22T02:10:05;5.13;;;3.70;;
34489;SDS011;20730;49.372;7.324;2023-11-22T02:12:33;5.60;;;3.92;;
34489;SDS011;20730;49.372;7.324;2023-11-22T02:15:00;5.63;;;3.70;;
34489;SDS011;20730;49.372;7.324;2023-11-22T02:17:27;5.82;;;3.90;;
34489;SDS011;20730;49.372;7.324;2023-11-22T02:19:55;4.57;;;3.63;;
34489;SDS011;20730;49.372;7.324;2023-11-22T02:22:22;5.95;;;3.92;;
34489;SDS011;20730;49.372;7.324;2023-11-22T02:24:48;7.55;;;4.07;;
34489;SDS011;20730;49.372;7.324;2023-11-22T02:27:15;5.53;;;4.07;;
34489;SDS011;20730;49.372;7.324;2023-11-22T02:29:42;6.63;;;3.85;;
34489;SDS011;20730;49.372;7.324;2023-11-22T02:32:10;4.45;;;3.65;;
34489;SDS011;20730;49.372;7.324;2023-11-22T02:34:36;5.45;;;3.58;;
34489;SDS011;20730;49.372;7.324;2023-11-22T02:37:05;5.60;;;3.72;;
34489;SDS011;20730;49.372;7.324;2023-11-22T02:39:35;6.25;;;3.70;;
34489;SDS011;20730;49.372;7.324;2023-11-22T02:42:17;6.00;;;3.78;;
34489;SDS011;20730;49.372;7.324;2023-11-22T02:44:44;4.75;;;3.42;;
34489;SDS011;20730;49.372;7.324;2023-11-22T02:47:11;7.78;;;3.65;;
34489;SDS011;20730;49.372;7.324;2023-11-22T02:49:37;5.95;;;3.30;;
34489;SDS011;20730;49.372;7.324;2023-11-22T02:52:05;4.80;;;3.28;;
34489;SDS011;20730;49.372;7.324;2023-11-22T02:54:32;5.13;;;3.45;;
34489;SDS011;20730;49.372;7.324;2023-11-22T02:56:59;4.95;;;3.45;;
34489;SDS011;20730;49.372;7.324;2023-11-22T02:59:26;5.45;;;3.72;;
34489;SDS011;20730;49.372;7.324;2023-11-22T03:01:53;4.93;;;3.60;;
34489;SDS011;20730;49.372;7.324;2023-11-22T03:04:20;6.45;;;3.75;;
34489;SDS011;20730;49.372;7.324;2023-11-22T03:06:46;5.35;;;3.55;;
34489;SDS011;20730;49.372;7.324;2023-11-22T03:09:14;6.10;;;3.30;;
34489;SDS011;20730;49.372;7.324;2023-11-22T03:11:41;6.65;;;3.92;;
34489;SDS011;20730;49.372;7.324;2023-11-22T03:14:08;6.88;;;4.45;;
34489;SDS011;20730;49.372;7.324;2023-11-22T03:16:38;5.88;;;4.28;;
34489;SDS011;20730;49.372;7.324;2023-11-22T03:19:06;6.07;;;4.25;;
34489;SDS011;20730;49.372;7.324;2023-11-22T03:21:33;6.32;;;4.22;;
34489;SDS011;20730;49.372;7.324;2023-11-22T03:24:06;5.55;;;3.80;;
34489;SDS011;20730;49.372;7.324;2023-11-22T03:26:35;6.35;;;4.32;;
34489;SDS011;20730;49.372;7.324;2023-11-22T03:29:02;6.95;;;4.30;;
34489;SDS011;20730;49.372;7.324;2023-11-22T03:31:28;5.60;;;4.07;;
34489;SDS011;20730;49.372;7.324;2023-11-22T03:33:56;6.57;;;4.60;;
34489;SDS011;20730;49.372;7.324;2023-11-22T03:36:23;6.15;;;4.20;;
34489;SDS011;20730;49.372;7.324;2023-11-22T03:38:50;6.93;;;4.20;;
34489;SDS011;20730;49.372;7.324;2023-11-22T03:41:17;7.47;;;4.40;;
34489;SDS011;20730;49.372;7.324;2023-11-22T03:43:44;8.55;;;3.60;;
34489;SDS011;20730;49.372;7.324;2023-11-22T03:46:11;5.47;;;4.20;;
34489;SDS011;20730;49.372;7.324;2023-11-22T03:48:39;5.40;;;3.58;;
34489;SDS011;20730;49.372;7.324;2023-11-22T03:51:06;5.30;;;3.53;;
34489;SDS011;20730;49.372;7.324;2023-11-22T03:53:32;5.88;;;3.67;;
34489;SDS011;20730;49.372;7.324;2023-11-22T03:55:59;5.25;;;3.30;;
34489;SDS011;20730;49.372;7.324;2023-11-22T03:58:26;5.40;;;3.53;;
34489;SDS011;20730;49.372;7.324;2023-11-22T04:00:53;7.88;;;3.90;;
34489;SDS011;20730;49.372;7.324;2023-11-22T04:03:19;6.47;;;3.60;;
34489;SDS011;20730;49.372;7.324;2023-11-22T04:05:46;4.55;;;3.35;;
34489;SDS011;20730;49.372;7.324;2023-11-22T04:08:13;9.18;;;3.45;;
34489;SDS011;20730;49.372;7.324;2023-11-22T04:10:40;5.05;;;4.05;;
34489;SDS011;20730;49.372;7.324;2023-11-22T04:13:07;5.03;;;3.55;;
34489;SDS011;20730;49.372;7.324;2023-11-22T04:15:34;5.40;;;3.63;;
34489;SDS011;20730;49.372;7.324;2023-11-22T04:18:01;7.50;;;3.85;;
34489;SDS011;20730;49.372;7.324;2023-11-22T04:20:28;5.07;;;3.53;;
34489;SDS011;20730;49.372;7.324;2023-11-22T04:22:54;5.00;;;3.45;;
34489;SDS011;20730;49.372;7.324;2023-11-22T04:25:21;4.90;;;3.42;;
34489;SDS011;20730;49.372;7.324;2023-11-22T04:27:48;7.47;;;3.47;;
34489;SDS011;20730;49.372;7.324;2023-11-22T04:30:14;4.90;;;3.47;;
34489;SDS011;20730;49.372;7.324;2023-11-22T04:32:43;7.47;;;3.55;;
34489;SDS011;20730;49.372;7.324;2023-11-22T04:35:11;5.45;;;3.47;;
34489;SDS011;20730;49.372;7.324;2023-11-22T04:37:37;5.30;;;2.83;;
34489;SDS011;20730;49.372;7.324;2023-11-22T04:40:04;6.70;;;3.53;;
34489;SDS011;20730;49.372;7.324;2023-11-22T04:42:34;4.80;;;3.13;;
34489;SDS011;20730;49.372;7.324;2023-11-22T04:45:06;5.15;;;3.47;;
34489;SDS011;20730;49.372;7.324;2023-11-22T04:47:33;4.75;;;3.53;;
34489;SDS011;20730;49.372;7.324;2023-11-22T04:50:00;5.70;;;3.28;;
34489;SDS011;20730;49.372;7.324;2023-11-22T04:52:27;6.70;;;3.55;;
34489;SDS011;20730;49.372;7.324;2023-11-22T04:57:24;5.90;;;3.70;;
34489;SDS011;20730;49.372;7.324;2023-11-22T04:59:51;5.47;;;3.65;;
34489;SDS011;20730;49.372;7.324;2023-11-22T05:02:18;6.05;;;3.50;;
34489;SDS011;20730;49.372;7.324;2023-11-22T05:04:45;6.60;;;3.38;;
34489;SDS011;20730;49.372;7.324;2023-11-22T05:07:15;5.00;;;3.30;;
34489;SDS011;20730;49.372;7.324;2023-11-22T05:09:42;4.80;;;3.10;;
34489;SDS011;20730;49.372;7.324;2023-11-22T05:12:11;4.07;;;3.00;;
34489;SDS011;20730;49.372;7.324;2023-11-22T05:14:38;4.80;;;3.30;;
34489;SDS011;20730;49.372;7.324;2023-11-22T05:17:05;4.95;;;3.35;;
34489;SDS011;20730;49.372;7.324;2023-11-22T05:19:32;7.60;;;3.67;;
34489;SDS011;20730;49.372;7.324;2023-11-22T05:21:59;5.78;;;3.88;;
34489;SDS011;20730;49.372;7.324;2023-11-22T05:24:26;8.18;;;4.03;;
34489;SDS011;20730;49.372;7.324;2023-11-22T05:26:52;6.47;;;3.97;;
34489;SDS011;20730;49.372;7.324;2023-11-22T05:29:19;7.05;;;3.80;;
34489;SDS011;20730;49.372;7.324;2023-11-22T05:31:46;8.85;;;3.65;;
34489;SDS011;20730;49.372;7.324;2023-11-22T05:34:12;6.50;;;3.70;;
34489;SDS011;20730;49.372;7.324;2023-11-22T05:36:39;5.03;;;3.78;;
34489;SDS011;20730;49.372;7.324;2023-11-22T05:39:07;6.05;;;3.88;;
34489;SDS011;20730;49.372;7.324;2023-11-22T05:41:33;8.10;;;4.07;;
34489;SDS011;20730;49.372;7.324;2023-11-22T05:44:00;6.78;;;4.57;;
34489;SDS011;20730;49.372;7.324;2023-11-22T05:46:27;4.97;;;3.97;;
34489;SDS011;20730;49.372;7.324;2023-11-22T05:48:53;7.13;;;4.15;;
34489;SDS011;20730;49.372;7.324;2023-11-22T05:51:21;5.43;;;4.35;;
34489;SDS011;20730;49.372;7.324;2023-11-22T05:53:48;5.78;;;4.30;;
34489;SDS011;20730;49.372;7.324;2023-11-22T05:56:14;6.57;;;4.53;;
34489;SDS011;20730;49.372;7.324;2023-11-22T05:58:43;6.38;;;4.28;;
34489;SDS011;20730;49.372;7.324;2023-11-22T06:01:10;4.85;;;3.60;;
34489;SDS011;20730;49.372;7.324;2023-11-22T06:03:38;7.13;;;3.72;;
34489;SDS011;20730;49.372;7.324;2023-11-22T06:06:05;5.88;;;3.75;;
34489;SDS011;20730;49.372;7.324;2023-11-22T06:08:33;5.65;;;3.75;;
34489;SDS011;20730;49.372;7.324;2023-11-22T06:11:00;11.63;;;4.80;;
34489;SDS011;20730;49.372;7.324;2023-11-22T06:13:26;9.38;;;5.00;;
34489;SDS011;20730;49.372;7.324;2023-11-22T06:15:53;7.00;;;4.18;;
34489;SDS011;20730;49.372;7.324;2023-11-22T06:18:20;6.15;;;3.67;;
34489;SDS011;20730;49.372;7.324;2023-11-22T06:20:47;8.15;;;3.63;;
34489;SDS011;20730;49.372;7.324;2023-11-22T06:23:14;5.00;;;3.67;;
34489;SDS011;20730;49.372;7.324;2023-11-22T06:25:41;5.82;;;3.80;;
34489;SDS011;20730;49.372;7.324;2023-11-22T06:28:09;5.85;;;3.63;;
34489;SDS011;20730;49.372;7.324;2023-11-22T06:30:35;6.57;;;3.85;;
34489;SDS011;20730;49.372;7.324;2023-11-22T06:33:02;5.72;;;3.65;;
34489;SDS011;20730;49.372;7.324;2023-11-22T06:35:29;6.70;;;4.05;;
34489;SDS011;20730;49.372;7.324;2023-11-22T06:37:55;7.32;;;4.20;;
34489;SDS011;20730;49.372;7.324;2023-11-22T06:40:22;5.75;;;3.60;;
34489;SDS011;20730;49.372;7.324;2023-11-22T06:42:49;4.18;;;3.22;;
34489;SDS011;20730;49.372;7.324;2023-11-22T06:45:15;5.00;;;3.35;;
34489;SDS011;20730;49.372;7.324;2023-11-22T06:47:43;5.57;;;3.20;;
34489;SDS011;20730;49.372;7.324;2023-11-22T06:50:11;5.47;;;3.30;;
34489;SDS011;20730;49.372;7.324;2023-11-22T06:52:38;5.38;;;3.25;;
34489;SDS011;20730;49.372;7.324;2023-11-22T06:55:06;3.80;;;2.90;;
34489;SDS011;20730;49.372;7.324;2023-11-22T06:57:36;5.90;;;3.30;;
34489;SDS011;20730;49.372;7.324;2023-11-22T07:00:03;5.53;;;3.30;;
34489;SDS011;20730;49.372;7.324;2023-11-22T07:02:32;3.80;;;2.58;;
34489;SDS011;20730;49.372;7.324;2023-11-22T07:04:59;4.97;;;3.30;;
34489;SDS011;20730;49.372;7.324;2023-11-22T07:07:26;4.78;;;3.30;;
34489;SDS011;20730;49.372;7.324;2023-11-22T07:09:53;5.07;;;3.38;;
34489;SDS011;20730;49.372;7.324;2023-11-22T07:12:22;5.07;;;3.30;;
34489;SDS011;20730;49.372;7.324;2023-11-22T07:14:49;5.43;;;3.13;;
34489;SDS011;20730;49.372;7.324;2023-11-22T07:17:16;5.55;;;3.33;;
34489;SDS011;20730;49.372;7.324;2023-11-22T07:19:44;5.88;;;3.20;;
34489;SDS011;20730;49.372;7.324;2023-11-22T07:24:47;3.90;;;2.85;;
34489;SDS011;20730;49.372;7.324;2023-11-22T07:27:17;4.20;;;2.65;;
34489;SDS011;20730;49.372;7.324;2023-11-22T07:29:45;5.10;;;3.00;;
34489;SDS011;20730;49.372;7.324;2023-11-22T07:32:12;5.13;;;3.00;;
34489;SDS011;20730;49.372;7.324;2023-11-22T07:34:39;4.22;;;2.78;;
34489;SDS011;20730;49.372;7.324;2023-11-22T07:37:07;5.05;;;3.10;;
34489;SDS011;20730;49.372;7.324;2023-11-22T07:39:35;4.47;;;3.08;;
34489;SDS011;20730;49.372;7.324;2023-11-22T07:42:02;4.75;;;3.08;;
34489;SDS011;20730;49.372;7.324;2023-11-22T07:44:29;6.07;;;3.28;;
34489;SDS011;20730;49.372;7.324;2023-11-22T07:46:59;5.13;;;3.33;;
34489;SDS011;20730;49.372;7.324;2023-11-22T07:49:29;6.18;;;3.05;;
34489;SDS011;20730;49.372;7.324;2023-11-22T07:51:57;6.47;;;3.80;;
34489;SDS011;20730;49.372;7.324;2023-11-22T07:54:23;5.38;;;3.75;;
34489;SDS011;20730;49.372;7.324;2023-11-22T07:56:50;7.20;;;3.20;;
34489;SDS011;20730;49.372;7.324;2023-11-22T07:59:18;6.43;;;3.33;;
34489;SDS011;20730;49.372;7.324;2023-11-22T08:01:45;4.38;;;2.80;;
34489;SDS011;20730;49.372;7.324;2023-11-22T08:04:14;3.15;;;2.83;;
34489;SDS011;20730;49.372;7.324;2023-11-22T08:06:44;5.40;;;2.95;;
34489;SDS011;20730;49.372;7.324;2023-11-22T08:09:11;6.05;;;2.70;;
34489;SDS011;20730;49.372;7.324;2023-11-22T08:11:38;4.28;;;2.35;;
34489;SDS011;20730;49.372;7.324;2023-11-22T08:14:05;4.15;;;2.13;;
34489;SDS011;20730;49.372;7.324;2023-11-22T08:16:32;3.42;;;2.20;;
34489;SDS011;20730;49.372;7.324;2023-11-22T08:19:04;3.38;;;2.40;;
34489;SDS011;20730;49.372;7.324;2023-11-22T08:21:31;3.55;;;2.25;;
34489;SDS011;20730;49.372;7.324;2023-11-22T08:23:59;3.63;;;2.20;;
34489;SDS011;20730;49.372;7.324;2023-11-22T08:26:26;3.13;;;1.98;;
34489;SDS011;20730;49.372;7.324;2023-11-22T08:28:53;3.50;;;2.50;;
34489;SDS011;20730;49.372;7.324;2023-11-22T08:31:20;3.17;;;2.28;;
34489;SDS011;20730;49.372;7.324;2023-11-22T08:33:47;4.53;;;2.15;;
34489;SDS011;20730;49.372;7.324;2023-11-22T08:36:13;6.72;;;2.38;;
34489;SDS011;20730;49.372;7.324;2023-11-22T08:38:40;3.53;;;1.90;;
34489;SDS011;20730;49.372;7.324;2023-11-22T08:41:07;2.63;;;1.75;;
34489;SDS011;20730;49.372;7.324;2023-11-22T08:46:04;3.17;;;2.20;;
34489;SDS011;20730;49.372;7.324;2023-11-22T08:48:40;3.53;;;2.20;;
34489;SDS011;20730;49.372;7.324;2023-11-22T08:51:08;5.75;;;2.17;;
34489;SDS011;20730;49.372;7.324;2023-11-22T08:53:36;3.67;;;2.70;;
34489;SDS011;20730;49.372;7.324;2023-11-22T08:56:04;3.45;;;2.40;;
34489;SDS011;20730;49.372;7.324;2023-11-22T08:58:37;2.67;;;2.20;;
34489;SDS011;20730;49.372;7.324;2023-11-22T09:01:05;3.17;;;2.05;;
34489;SDS011;20730;49.372;7.324;2023-11-22T09:03:33;2.65;;;2.05;;
34489;SDS011;20730;49.372;7.324;2023-11-22T09:06:00;4.20;;;2.03;;
34489;SDS011;20730;49.372;7.324;2023-11-22T09:08:29;4.93;;;1.77;;
34489;SDS011;20730;49.372;7.324;2023-11-22T09:10:57;3.17;;;2.40;;
34489;SDS011;20730;49.372;7.324;2023-11-22T09:13:23;3.03;;;2.60;;
34489;SDS011;20730;49.372;7.324;2023-11-22T09:15:51;5.13;;;2.50;;
34489;SDS011;20730;49.372;7.324;2023-11-22T09:18:18;3.05;;;1.88;;
34489;SDS011;20730;49.372;7.324;2023-11-22T09:20:45;2.90;;;2.25;;
34489;SDS011;20730;49.372;7.324;2023-11-22T09:23:12;4.75;;;2.03;;
34489;SDS011;20730;49.372;7.324;2023-11-22T09:25:40;3.20;;;2.28;;
34489;SDS011;20730;49.372;7.324;2023-11-22T09:28:07;3.55;;;1.98;;
34489;SDS011;20730;49.372;7.324;2023-11-22T09:30:35;4.95;;;2.70;;
34489;SDS011;20730;49.372;7.324;2023-11-22T09:33:08;4.70;;;2.17;;
34489;SDS011;20730;49.372;7.324;2023-11-22T09:35:42;7.63;;;2.58;;
34489;SDS011;20730;49.372;7.324;2023-11-22T09:38:13;3.10;;;2.80;;
34489;SDS011;20730;49.372;7.324;2023-11-22T09:40:42;5.00;;;3.08;;
34489;SDS011;20730;49.372;7.324;2023-11-22T09:43:13;3.97;;;2.65;;
34489;SDS011;20730;49.372;7.324;2023-11-22T09:45:49;3.85;;;2.60;;
34489;SDS011;20730;49.372;7.324;2023-11-22T09:48:22;4.25;;;2.58;;
34489;SDS011;20730;49.372;7.324;2023-11-22T09:53:57;3.42;;;2.28;;
34489;SDS011;20730;49.372;7.324;2023-11-22T09:56:33;3.92;;;2.72;;
34489;SDS011;20730;49.372;7.324;2023-11-22T09:59:03;3.88;;;2.83;;
34489;SDS011;20730;49.372;7.324;2023-11-22T10:01:30;3.20;;;2.40;;
34489;SDS011;20730;49.372;7.324;2023-11-22T10:03:58;2.85;;;2.33;;
34489;SDS011;20730;49.372;7.324;2023-11-22T10:06:26;2.67;;;1.98;;
34489;SDS011;20730;49.372;7.324;2023-11-22T10:08:53;4.05;;;2.00;;
34489;SDS011;20730;49.372;7.324;2023-11-22T10:11:20;5.22;;;2.38;;
34489;SDS011;20730;49.372;7.324;2023-11-22T10:13:48;2.75;;;1.95;;
34489;SDS011;20730;49.372;7.324;2023-11-22T10:16:16;3.45;;;2.63;;
34489;SDS011;20730;49.372;7.324;2023-11-22T10:18:45;11.30;;;3.17;;
34489;SDS011;20730;49.372;7.324;2023-11-22T10:21:19;2.58;;;2.08;;
34489;SDS011;20730;49.372;7.324;2023-11-22T10:23:47;3.92;;;3.10;;
34489;SDS011;20730;49.372;7.324;2023-11-22T10:26:14;5.15;;;2.88;;
34489;SDS011;20730;49.372;7.324;2023-11-22T10:28:44;4.40;;;2.90;;
34489;SDS011;20730;49.372;7.324;2023-11-22T10:31:11;5.88;;;2.65;;
34489;SDS011;20730;49.372;7.324;2023-11-22T10:33:39;4.63;;;2.78;;
34489;SDS011;20730;49.372;7.324;2023-11-22T10:36:09;3.93;;;3.00;;
34489;SDS011;20730;49.372;7.324;2023-11-22T10:38:36;3.55;;;2.25;;
34489;SDS011;20730;49.372;7.324;2023-11-22T10:41:03;4.88;;;2.95;;
34489;SDS011;20730;49.372;7.324;2023-11-22T10:43:31;4.00;;;2.70;;
34489;SDS011;20730;49.372;7.324;2023-11-22T10:48:29;3.80;;;2.58;;
34489;SDS011;20730;49.372;7.324;2023-11-22T10:50:57;3.45;;;2.08;;
34489;SDS011;20730;49.372;7.324;2023-11-22T10:53:26;3.35;;;2.50;;
34489;SDS011;20730;49.372;7.324;2023-11-22T10:56:04;4.18;;;2.70;;
34489;SDS011;20730;49.372;7.324;2023-11-22T10:58:48;3.85;;;2.63;;
34489;SDS011;20730;49.372;7.324;2023-11-22T11:01:17;3.28;;;2.70;;
34489;SDS011;20730;49.372;7.324;2023-11-22T11:03:50;4.40;;;2.88;;
34489;SDS011;20730;49.372;7.324;2023-11-22T11:06:23;4.60;;;2.55;;
34489;SDS011;20730;49.372;7.324;2023-11-22T11:08:55;3.15;;;2.58;;
34489;SDS011;20730;49.372;7.324;2023-11-22T11:11:24;3.22;;;2.20;;
34489;SDS011;20730;49.372;7.324;2023-11-22T11:13:51;3.33;;;2.30;;
34489;SDS011;20730;49.372;7.324;2023-11-22T11:16:19;5.70;;;2.60;;
34489;SDS011;20730;49.372;7.324;2023-11-22T11:18:46;4.78;;;3.28;;
34489;SDS011;20730;49.372;7.324;2023-11-22T11:21:14;3.75;;;2.92;;
34489;SDS011;20730;49.372;7.324;2023-11-22T11:23:41;3.90;;;2.50;;
34489;SDS011;20730;49.372;7.324;2023-11-22T11:26:14;5.10;;;2.80;;
34489;SDS011;20730;49.372;7.324;2023-11-22T11:28:44;3.65;;;2.17;;
34489;SDS011;20730;49.372;7.324;2023-11-22T11:31:12;5.00;;;2.70;;
34489;SDS011;20730;49.372;7.324;2023-11-22T11:36:22;4.30;;;2.50;;
34489;SDS011;20730;49.372;7.324;2023-11-22T11:38:56;4.55;;;2.40;;
34489;SDS011;20730;49.372;7.324;2023-11-22T11:41:28;2.92;;;2.20;;
34489;SDS011;20730;49.372;7.324;2023-11-22T11:43:56;3.63;;;2.33;;
34489;SDS011;20730;49.372;7.324;2023-11-22T11:46:24;5.07;;;2.38;;
34489;SDS011;20730;49.372;7.324;2023-11-22T11:48:53;4.07;;;2.50;;
34489;SDS011;20730;49.372;7.324;2023-11-22T11:51:27;5.57;;;2.47;;
34489;SDS011;20730;49.372;7.324;2023-11-22T11:53:55;4.68;;;2.67;;
34489;SDS011;20730;49.372;7.324;2023-11-22T11:56:22;3.85;;;2.63;;
34489;SDS011;20730;49.372;7.324;2023-11-22T11:58:50;3.60;;;1.90;;
34489;SDS011;20730;49.372;7.324;2023-11-22T12:01:17;3.75;;;2.60;;
34489;SDS011;20730;49.372;7.324;2023-11-22T12:03:46;3.42;;;2.15;;
34489;SDS011;20730;49.372;7.324;2023-11-22T12:06:16;6.60;;;2.00;;
34489;SDS011;20730;49.372;7.324;2023-11-22T12:08:44;3.42;;;2.72;;
34489;SDS011;20730;49.372;7.324;2023-11-22T12:11:13;5.55;;;2.83;;
34489;SDS011;20730;49.372;7.324;2023-11-22T12:13:42;3.47;;;2.30;;
34489;SDS011;20730;49.372;7.324;2023-11-22T12:16:15;5.22;;;2.10;;
34489;SDS011;20730;49.372;7.324;2023-11-22T12:18:48;3.35;;;2.60;;
34489;SDS011;20730;49.372;7.324;2023-11-22T12:21:16;3.65;;;2.60;;
34489;SDS011;20730;49.372;7.324;2023-11-22T12:23:45;2.90;;;2.30;;
34489;SDS011;20730;49.372;7.324;2023-11-22T12:26:17;4.25;;;2.13;;
34489;SDS011;20730;49.372;7.324;2023-11-22T12:28:46;3.00;;;2.15;;
34489;SDS011;20730;49.372;7.324;2023-11-22T12:31:30;4.50;;;2.42;;
34489;SDS011;20730;49.372;7.324;2023-11-22T12:34:02;3.92;;;2.42;;
34489;SDS011;20730;49.372;7.324;2023-11-22T12:36:30;3.47;;;2.45;;
34489;SDS011;20730;49.372;7.324;2023-11-22T12:38:57;4.85;;;2.00;;
34489;SDS011;20730;49.372;7.324;2023-11-22T12:41:26;4.07;;;2.23;;
34489;SDS011;20730;49.372;7.324;2023-11-22T12:44:05;5.43;;;2.65;;
34489;SDS011;20730;49.372;7.324;2023-11-22T12:46:44;5.22;;;1.90;;
34489;SDS011;20730;49.372;7.324;2023-11-22T12:49:12;3.47;;;2.13;;
34489;SDS011;20730;49.372;7.324;2023-11-22T12:51:38;3.85;;;2.05;;
34489;SDS011;20730;49.372;7.324;2023-11-22T12:54:05;4.38;;;1.80;;
34489;SDS011;20730;49.372;7.324;2023-11-22T12:56:33;3.50;;;2.38;;
34489;SDS011;20730;49.372;7.324;2023-11-22T12:59:00;2.97;;;1.95;;
34489;SDS011;20730;49.372;7.324;2023-11-22T13:01:27;2.70;;;1.90;;
34489;SDS011;20730;49.372;7.324;2023-11-22T13:03:54;4.82;;;2.60;;
34489;SDS011;20730;49.372;7.324;2023-11-22T13:06:21;3.55;;;2.40;;
34489;SDS011;20730;49.372;7.324;2023-11-22T13:08:51;6.25;;;2.55;;
34489;SDS011;20730;49.372;7.324;2023-11-22T13:11:18;4.65;;;2.08;;
34489;SDS011;20730;49.372;7.324;2023-11-22T13:13:45;5.95;;;2.42;;
34489;SDS011;20730;49.372;7.324;2023-11-22T13:16:13;2.35;;;1.83;;
34489;SDS011;20730;49.372;7.324;2023-11-22T13:18:42;3.03;;;2.03;;
34489;SDS011;20730;49.372;7.324;2023-11-22T13:21:09;3.30;;;2.35;;
34489;SDS011;20730;49.372;7.324;2023-11-22T13:23:36;3.67;;;2.40;;
34489;SDS011;20730;49.372;7.324;2023-11-22T13:26:02;3.78;;;2.30;;
34489;SDS011;20730;49.372;7.324;2023-11-22T13:28:31;4.00;;;2.33;;
34489;SDS011;20730;49.372;7.324;2023-11-22T13:30:58;3.55;;;2.20;;
34489;SDS011;20730;49.372;7.324;2023-11-22T13:33:25;3.30;;;2.47;;
34489;SDS011;20730;49.372;7.324;2023-11-22T13:35:54;4.25;;;2.60;;
34489;SDS011;20730;49.372;7.324;2023-11-22T13:38:21;2.53;;;1.60;;
34489;SDS011;20730;49.372;7.324;2023-11-22T13:40:48;2.85;;;2.15;;
34489;SDS011;20730;49.372;7.324;2023-11-22T13:43:14;5.35;;;2.20;;
34489;SDS011;20730;49.372;7.324;2023-11-22T13:45:43;6.28;;;2.05;;
34489;SDS011;20730;49.372;7.324;2023-11-22T13:48:11;2.63;;;2.13;;
34489;SDS011;20730;49.372;7.324;2023-11-22T13:50:39;3.38;;;2.08;;
34489;SDS011;20730;49.372;7.324;2023-11-22T13:53:06;3.55;;;2.20;;
34489;SDS011;20730;49.372;7.324;2023-11-22T13:55:32;4.60;;;2.08;;
34489;SDS011;20730;49.372;7.324;2023-11-22T13:58:00;3.95;;;1.90;;
34489;SDS011;20730;49.372;7.324;2023-11-22T14:00:27;6.55;;;1.75;;
34489;SDS011;20730;49.372;7.324;2023-11-22T14:02:59;5.35;;;1.75;;
34489;SDS011;20730;49.372;7.324;2023-11-22T14:05:35;4.53;;;1.80;;
34489;SDS011;20730;49.372;7.324;2023-11-22T14:08:04;2.65;;;1.80;;
34489;SDS011;20730;49.372;7.324;2023-11-22T14:10:32;4.05;;;2.20;;
34489;SDS011;20730;49.372;7.324;2023-11-22T14:12:59;2.63;;;1.77;;
34489;SDS011;20730;49.372;7.324;2023-11-22T14:15:27;3.67;;;1.77;;
34489;SDS011;20730;49.372;7.324;2023-11-22T14:17:57;3.35;;;2.08;;
34489;SDS011;20730;49.372;7.324;2023-11-22T14:20:24;3.75;;;1.80;;
34489;SDS011;20730;49.372;7.324;2023-11-22T14:22:51;3.90;;;2.10;;
34489;SDS011;20730;49.372;7.324;2023-11-22T14:25:19;2.33;;;1.77;;
34489;SDS011;20730;49.372;7.324;2023-11-22T14:27:46;3.53;;;2.28;;
34489;SDS011;20730;49.372;7.324;2023-11-22T14:30:19;4.15;;;2.08;;
34489;SDS011;20730;49.372;7.324;2023-11-22T14:32:47;3.13;;;1.90;;
34489;SDS011;20730;49.372;7.324;2023-11-22T14:35:14;3.25;;;1.90;;
34489;SDS011;20730;49.372;7.324;2023-11-22T14:37:41;4.30;;;2.28;;
34489;SDS011;20730;49.372;7.324;2023-11-22T14:40:07;3.72;;;2.20;;
34489;SDS011;20730;49.372;7.324;2023-11-22T14:42:42;4.13;;;1.83;;
34489;SDS011;20730;49.372;7.324;2023-11-22T14:45:11;3.38;;;2.13;;
34489;SDS011;20730;49.372;7.324;2023-11-22T14:47:38;3.90;;;2.20;;
34489;SDS011;20730;49.372;7.324;2023-11-22T14:50:07;3.60;;;2.22;;
34489;SDS011;20730;49.372;7.324;2023-11-22T14:52:38;8.02;;;2.30;;
34489;SDS011;20730;49.372;7.324;2023-11-22T14:55:05;4.35;;;2.17;;
34489;SDS011;20730;49.372;7.324;2023-11-22T14:57:32;5.15;;;2.28;;
34489;SDS011;20730;49.372;7.324;2023-11-22T14:59:58;4.22;;;2.28;;
34489;SDS011;20730;49.372;7.324;2023-11-22T15:02:25;3.50;;;2.10;;
34489;SDS011;20730;49.372;7.324;2023-11-22T15:04:53;4.40;;;2.40;;
34489;SDS011;20730;49.372;7.324;2023-11-22T15:07:21;4.10;;;2.40;;